Latest Coastal Weather Observations for Shark Bay Airport

IDW60701

Issued at 5:33 am WST Sunday 26 March 2017 (issued every 10 minutes, with the page automatically refreshed every 10 minutes)

About coastal observations | Map of coastal stations | Coastal observations for WA | Marine services | Other Formats
Station Details ID: 006105 Name: SHARK BAY AIRPORT Lat: -25.89 Lon: 113.58 Height: 33.8 m
Data from the previous 72 hours. | See also: Recent months at Shark Bay Airport
Date/Time
WST
Temp
°C
Wind Pressure Rain since
9am
mm
Weather Cloud Vis
km
Sea
Height
m
Swell
Dir  Spd
kts
Gust
kts
hPa Trend Height
m
Period
s
Dir
26/05:30am 21.5 S 12 16 1012.4 - 0.0 - - - - - - -
26/05:00am 21.5 S 9 13 1012.3 - 0.0 - - - - - - -
26/04:30am 21.3 S 11 16 1011.9 - 0.0 - - - - - - -
26/04:00am 21.6 S 11 15 1011.7 - 0.0 - - - - - - -
26/03:30am 21.6 S 11 15 1011.6 - 0.0 - - - - - - -
26/03:00am 21.8 S 12 18 1011.4 - 0.0 - - - - - - -
26/02:30am 21.4 S 11 15 1011.3 - 0.0 - - - - - - -
26/02:00am 21.7 SSW 12 18 1011.2 - 0.0 - - - - - - -
26/01:30am 21.8 S 11 16 1011.3 - 0.0 - - - - - - -
26/01:00am 21.4 S 12 17 1011.3 - 0.0 - - - - - - -
26/12:30am 21.2 S 12 16 1011.2 - 0.0 - - - - - - -
26/12:00am 21.2 S 12 16 1011.0 - 0.0 - - - - - - -
 
Date/Time
WST
Temp
°C
Wind Pressure Rain since
9am
mm
Weather Cloud Vis
km
Sea
Height
m
Swell
Dir  Spd
kts
Gust
kts
hPa Trend Height
m
Period
s
Dir
25/11:30pm 21.3 S 13 19 1010.8 - 0.0 - - - - - - -
25/11:00pm 21.2 S 10 14 1010.7 - 0.0 - - - - - - -
25/10:30pm 21.4 S 10 15 1010.7 - 0.0 - - - - - - -
25/10:00pm 21.5 SSE 11 16 1010.7 - 0.0 - - - - - - -
25/09:30pm 21.7 SSW 11 14 1010.6 - 0.0 - - - - - - -
25/09:00pm 21.9 S 12 17 1010.5 - 0.0 - - - - - - -
25/08:30pm 22.2 W 13 19 1010.2 - 0.0 - - - - - - -
25/08:00pm 22.6 WNW 14 19 1009.9 - 0.0 - - - - - - -
25/07:30pm 22.9 W 14 19 1009.5 - 0.0 - - - - - - -
25/07:00pm 23.5 W 15 20 1009.2 - 0.0 - - - - - - -
25/06:30pm 24.3 W 17 22 1009.0 - 0.0 - - - - - - -
25/06:00pm 25.2 WSW 16 22 1008.6 - 0.0 - - - - - - -
25/05:30pm 26.4 WSW 18 23 1008.4 - 0.0 - - - - - - -
25/05:00pm 27.2 SW 18 24 1008.3 - 0.0 - - - - - - -
25/04:30pm 29.1 WSW 15 21 1008.0 - 0.0 - - - - - - -
25/04:00pm 29.0 W 15 20 1008.0 - 0.0 - - - - - - -
25/03:30pm 29.5 SW 13 17 1007.8 - 0.0 - - - - - - -
25/03:00pm 30.6 SW 12 17 1007.7 - 0.0 - - - - - - -
25/02:30pm 30.8 SW 12 17 1007.8 - 0.0 - - - - - - -
25/02:00pm 31.7 SW 12 16 1007.9 - 0.0 - - - - - - -
25/01:30pm 31.7 SW 13 16 1007.9 - 0.0 - - - - - - -
25/01:00pm 31.5 SW 13 17 1008.2 - 0.0 - - - - - - -
25/12:30pm 31.4 SW 11 14 1008.5 - 0.0 - - - - - - -
25/12:00pm 30.7 SW 11 14 1008.9 - 0.0 - - - - - - -
25/11:30am 30.8 S 8 14 1009.3 - 0.0 - - - - - - -
25/11:00am 30.3 SE 8 14 1009.5 - 0.0 - - - - - - -
25/10:30am 29.2 SSE 7 10 1009.8 - 0.0 - - - - - - -
25/10:00am 28.8 S 7 10 1009.9 - 0.0 - - - - - - -
25/09:30am 26.8 SSE 9 12 1010.0 - 0.0 - - - - - - -
25/09:00am 25.9 SSE 10 14 1010.2 - 0.0 - - - - - - -
25/08:30am 24.5 S 11 15 1010.1 - 0.0 - - - - - - -
25/08:00am 23.0 SSE 9 12 1010.1 - 0.0 - - - - - - -
25/07:30am 20.9 S 8 10 1010.1 - 0.0 - - - - - - -
25/07:00am 19.5 SSE 6 8 1009.7 - 0.0 - - - - - - -
25/06:30am 19.4 SSE 7 9 1009.5 - 0.0 - - - - - - -
25/06:00am 19.7 SSE 7 11 1009.2 - 0.0 - - - - - - -
25/05:30am 19.9 SSE 8 11 1008.8 - 0.0 - - - - - - -
25/05:00am 19.9 SSE 8 9 1008.7 - 0.0 - - - - - - -
25/04:30am 20.0 SSE 8 11 1008.7 - 0.0 - - - - - - -
25/04:00am 20.0 SSE 7 10 1008.5 - 0.0 - - - - - - -
25/03:30am 20.0 SSE 7 9 1008.6 - 0.0 - - - - - - -
25/03:00am 20.1 SSE 8 11 1008.6 - 0.0 - - - - - - -
25/02:30am 20.1 SSE 7 9 1008.7 - 0.0 - - - - - - -
25/02:00am 20.2 SSE 6 8 1008.9 - 0.0 - - - - - - -
25/01:30am 20.7 S 9 13 1008.8 - 0.0 - - - - - - -
25/01:00am 20.9 SSE 7 12 1009.1 - 0.0 - - - - - - -
25/12:30am 21.4 SSE 11 15 1009.1 - 0.0 - - - - - - -
25/12:00am 21.6 SSE 12 17 1009.2 - 0.0 - - - - - - -
 
Date/Time
WST
Temp
°C
Wind Pressure Rain since
9am
mm
Weather Cloud Vis
km
Sea
Height
m
Swell
Dir  Spd
kts
Gust
kts
hPa Trend Height
m
Period
s
Dir
24/11:30pm 21.6 S 13 19 1009.3 - 0.0 - - - - - - -
24/11:00pm 21.8 S 14 21 1009.4 - 0.0 - - - - - - -
24/10:30pm 21.9 S 13 19 1009.4 - 0.0 - - - - - - -
24/10:00pm 22.1 S 14 20 1009.4 - 0.0 - - - - - - -
24/09:30pm 22.1 S 13 21 1009.4 - 0.0 - - - - - - -
24/09:00pm 22.3 SSW 14 19 1009.1 - 0.0 - - - - - - -
24/08:30pm 22.5 S 15 23 1008.8 - 0.0 - - - - - - -
24/08:00pm 22.7 SSW 17 23 1008.6 - 0.0 - - - - - - -
24/07:41pm 22.7 S 15 25 1008.4 - 0.0 - - - - - - -
24/07:30pm 22.9 S 17 24 1008.3 - 0.0 - - - - - - -
24/07:00pm 23.0 S 16 27 1008.0 - 0.0 - - - - - - -
24/06:53pm 23.1 S 17 27 1008.0 - 0.0 - - - - - - -
24/06:30pm 23.5 S 16 23 1007.9 - 0.0 - - - - - - -
24/06:00pm 24.4 SSW 17 24 1007.7 - 0.0 - - - - - - -
24/05:30pm 25.1 SSW 19 26 1007.5 - 0.0 - - - - - - -
24/05:00pm 25.9 SSW 20 27 1007.5 - 0.0 - - - - - - -
24/04:30pm 26.9 SSW 19 28 1007.4 - 0.0 - - - - - - -
24/04:00pm 27.2 SSW 19 28 1007.4 - 0.0 - - - - - - -
24/03:59pm 27.2 SSW 18 28 1007.4 - 0.0 - - - - - - -
24/03:30pm 27.8 S 19 25 1007.5 - 0.0 - - - - - - -
24/03:27pm 27.9 S 18 26 1007.5 - 0.0 - - - - - - -
24/03:26pm 27.9 S 18 26 1007.5 - 0.0 - - - - - - -
24/03:22pm 28.2 S 19 26 1007.5 - 0.0 - - - - - - -
24/03:00pm 28.3 SSW 21 28 1007.5 - 0.0 - - - - - - -
24/02:30pm 28.9 SSW 19 24 1007.6 - 0.0 - - - - - - -
24/02:00pm 28.9 SSW 19 25 1007.8 - 0.0 - - - - - - -
24/01:30pm 29.2 SSW 16 23 1008.2 - 0.0 - - - - - - -
24/01:00pm 29.1 SSW 17 23 1008.5 - 0.0 - - - - - - -
24/12:30pm 29.3 S 15 24 1008.9 - 0.0 - - - - - - -
24/12:28pm 29.0 S 15 25 1009.0 - 0.0 - - - - - - -
24/12:00pm 28.7 S 15 21 1009.4 - 0.0 - - - - - - -
24/11:30am 28.0 S 15 22 1010.0 - 0.0 - - - - - - -
24/11:00am 27.5 S 14 19 1010.5 - 0.0 - - - - - - -
24/10:30am 26.5 SSE 14 22 1010.8 - 0.0 - - - - - - -
24/10:00am 25.7 S 14 21 1011.0 - 0.0 - - - - - - -
24/09:30am 25.1 SSE 15 22 1011.1 - 0.0 - - - - - - -
24/09:00am 23.9 SSE 16 22 1011.1 - 0.0 - - - - - - -
24/08:30am 23.0 SSE 18 26 1010.9 - 0.0 - - - - - - -
24/08:00am 22.2 SSE 17 24 1010.8 - 0.0 - - - - - - -
24/07:42am 21.5 SSE 15 25 1010.8 - 0.0 - - - - - - -
24/07:30am 21.2 SSE 15 23 1010.8 - 0.0 - - - - - - -
24/07:00am 20.1 S 13 18 1010.6 - 0.0 - - - - - - -
24/06:30am 19.6 S 13 19 1010.5 - 0.0 - - - - - - -
24/06:00am 19.5 SSE 11 16 1010.1 - 0.0 - - - - - - -
24/05:30am 19.6 SSE 12 18 1010.1 - 0.0 - - - - - - -
24/05:00am 19.6 SSE 13 18 1009.9 - 0.0 - - - - - - -
24/04:30am 19.5 SSE 13 19 1009.8 - 0.0 - - - - - - -
24/04:00am 19.5 SSE 13 18 1009.8 - 0.0 - - - - - - -
24/03:30am 19.5 SSE 13 18 1009.7 - 0.0 - - - - - - -
24/03:00am 19.6 SSE 13 19 1009.8 - 0.0 - - - - - - -
24/02:30am 19.7 SSE 13 20 1009.9 - 0.0 - - - - - - -
24/02:00am 19.9 SSE 13 18 1010.1 - 0.0 - - - - - - -
24/01:30am 20.4 SSE 15 23 1009.9 - 0.0 - - - - - - -
24/01:00am 20.6 SSE 17 23 1009.9 - 0.0 - - - - - - -
24/12:30am 20.8 SSE 15 22 1009.9 - 0.0 - - - - - - -
24/12:00am 21.0 SSE 16 24 1009.9 - 0.0 - - - - - - -
 
Date/Time
WST
Temp
°C
Wind Pressure Rain since
9am
mm
Weather Cloud Vis
km
Sea
Height
m
Swell
Dir  Spd
kts
Gust
kts
hPa Trend Height
m
Period
s
Dir
23/11:30pm 21.1 SSE 17 23 1010.1 - 0.0 - - - - - - -
23/11:00pm 21.3 SSE 15 21 1010.3 - 0.0 - - - - - - -
23/10:30pm 21.4 SSE 16 22 1010.4 - 0.0 - - - - - - -
23/10:25pm 21.5 SSE 17 27 1010.4 - 0.0 - - - - - - -
23/10:00pm 21.7 S 17 24 1010.4 - 0.0 - - - - - - -
23/09:30pm 21.8 S 19 25 1010.4 - 0.0 - - - - - - -
23/09:00pm 21.9 S 18 25 1010.2 - 0.0 - - - - - - -
23/08:30pm 22.1 S 18 27 1009.9 - 0.0 - - - - - - -
23/08:01pm 22.0 S 17 27 1009.6 - 0.0 - - - - - - -
23/08:00pm 22.1 S 18 27 1009.6 - 0.0 - - - - - - -
23/07:43pm 22.1 S 17 27 1009.3 - 0.0 - - - - - - -
23/07:30pm 22.2 S 19 27 1009.2 - 0.0 - - - - - - -
23/07:13pm 22.3 S 17 27 1009.0 - 0.0 - - - - - - -
23/07:00pm 22.4 S 19 27 1008.9 - 0.0 - - - - - - -
23/06:30pm 22.9 S 20 28 1008.6 - 0.0 - - - - - - -
23/06:09pm 23.6 S 20 30 1008.5 - 0.0 - - - - - - -
23/06:00pm 23.7 S 20 29 1008.5 - 0.0 - - - - - - -
23/05:30pm 25.0 S 22 32 1008.4 - 0.0 - - - - - - -
23/05:22pm 25.5 S 20 30 1008.4 - 0.0 - - - - - - -
23/05:00pm 26.0 S 21 29 1008.3 - 0.0 - - - - - - -
23/04:30pm 26.9 S 20 29 1008.4 - 0.0 - - - - - - -
23/04:00pm 27.7 SSW 19 27 1008.2 - 0.0 - - - - - - -
23/03:30pm 27.7 SSW 21 28 1008.1 - 0.0 - - - - - - -
23/03:00pm 28.4 SSW 19 27 1008.1 - 0.0 - - - - - - -
23/02:30pm 28.4 SSW 19 27 1008.3 - 0.0 - - - - - - -
23/02:00pm 28.6 SSW 20 27 1008.5 - 0.0 - - - - - - -
23/01:56pm 28.5 SSW 20 27 1008.6 - 0.0 - - - - - - -
23/01:30pm 28.9 S 17 26 1009.0 - 0.0 - - - - - - -
23/01:00pm 29.3 S 16 23 1009.2 - 0.0 - - - - - - -
23/12:33pm 28.4 S 16 27 1009.4 - 0.0 - - - - - - -
23/12:30pm 28.3 S 17 24 1009.5 - 0.0 - - - - - - -
23/12:00pm 27.5 S 18 25 1010.0 - 0.0 - - - - - - -
23/11:30am 27.4 SSE 16 24 1010.5 - 0.0 - - - - - - -
23/11:07am 26.6 SSE 16 26 1010.9 - 0.0 - - - - - - -
23/11:00am 26.4 SSE 17 26 1011.0 - 0.0 - - - - - - -
23/10:30am 25.8 SSE 17 24 1011.4 - 0.0 - - - - - - -
23/10:08am 25.4 SSE 16 26 1011.6 - 0.0 - - - - - - -
23/10:00am 24.7 SSE 18 26 1011.7 - 0.0 - - - - - - -
23/09:30am 23.6 SSE 19 25 1011.9 - 0.0 - - - - - - -
23/09:00am 23.2 SSE 16 23 1011.9 - 0.0 - - - - - - -
23/08:30am 22.0 SE 18 24 1012.0 - 0.0 - - - - - - -
23/08:00am 21.3 SE 17 25 1011.9 - 0.0 - - - - - - -
23/07:30am 20.5 SSE 17 23 1011.6 - 0.0 - - - - - - -
23/07:00am 19.5 SSE 12 18 1011.5 - 0.0 - - - - - - -
23/06:30am 19.0 SSE 12 17 1011.2 - 0.0 - - - - - - -
23/06:00am 19.0 SSE 13 21 1011.0 - 0.0 - - - - - - -

Other Formats:

Comma delimited format used in spreadsheet applications
http://www.bom.gov.au/fwo/IDW60701/IDW60701.95402.axf

JavaScript Object Notation format (JSON) in row-major order
http://www.bom.gov.au/fwo/IDW60701/IDW60701.95402.json